createdAt,value
2022-12-03T00:02:22.481Z,17.07
2022-12-03T00:04:53.215Z,17.33
2022-12-03T00:07:23.804Z,16.33
2022-12-03T00:09:56.849Z,18.37
2022-12-03T00:12:27.141Z,18.53
2022-12-03T00:14:57.609Z,17.07
2022-12-03T00:17:28.121Z,17.63
2022-12-03T00:19:58.411Z,15.83
2022-12-03T00:22:28.628Z,17.00
2022-12-03T00:25:01.485Z,19.93
2022-12-03T00:27:31.753Z,17.73
2022-12-03T00:30:03.101Z,18.43
2022-12-03T00:32:33.473Z,19.63
2022-12-03T00:35:03.740Z,16.70
2022-12-03T00:37:35.251Z,17.70
2022-12-03T00:40:08.897Z,18.30
2022-12-03T00:42:39.221Z,17.60
2022-12-03T00:45:10.203Z,19.00
2022-12-03T00:47:40.622Z,19.67
2022-12-03T00:50:11.467Z,17.63
2022-12-03T00:52:41.764Z,19.10
2022-12-03T00:55:15.160Z,18.30
2022-12-03T00:57:45.401Z,19.27
2022-12-03T01:00:16.803Z,18.47
2022-12-03T01:02:47.093Z,18.77
2022-12-03T01:05:17.390Z,16.30
2022-12-03T01:07:47.740Z,19.63
2022-12-03T01:10:21.128Z,17.63
2022-12-03T01:12:51.484Z,18.03
2022-12-03T01:15:21.799Z,17.53
2022-12-03T01:17:54.343Z,18.40
2022-12-03T01:20:24.694Z,20.00
2022-12-03T01:22:55.021Z,18.63
2022-12-03T01:25:27.837Z,19.40
2022-12-03T01:27:58.054Z,17.37
2022-12-03T01:30:28.394Z,18.20
2022-12-03T01:32:56.089Z,17.90
2022-12-03T01:35:26.363Z,19.70
2022-12-03T01:37:56.609Z,18.80
2022-12-03T01:40:29.493Z,18.13
2022-12-03T01:42:59.724Z,19.00
2022-12-03T01:45:29.981Z,18.73
2022-12-03T01:48:00.815Z,18.43
2022-12-03T01:50:34.491Z,18.80
2022-12-03T01:53:05.472Z,17.60
2022-12-03T01:55:38.369Z,18.07
2022-12-03T01:58:08.633Z,17.37
2022-12-03T02:00:38.905Z,16.53
2022-12-03T02:03:11.982Z,18.13
2022-12-03T02:05:42.872Z,18.50
2022-12-03T02:08:34.994Z,18.97
2022-12-03T02:11:13.878Z,16.70
2022-12-03T02:13:45.268Z,19.00
2022-12-03T02:16:15.730Z,17.87
2022-12-03T02:18:46.321Z,18.50
2022-12-03T02:21:19.517Z,18.43
2022-12-03T02:23:55.826Z,19.07
2022-12-03T02:26:29.808Z,18.27
2022-12-03T02:29:00.436Z,19.08
2022-12-03T02:31:30.783Z,18.13
2022-12-03T02:34:01.057Z,17.00
2022-12-03T02:36:32.714Z,18.37
2022-12-03T02:39:03.067Z,17.40
2022-12-03T02:41:48.475Z,19.00
2022-12-03T02:44:18.942Z,19.23
2022-12-03T02:46:49.294Z,17.70
2022-12-03T02:49:19.661Z,18.30
2022-12-03T02:51:50.029Z,16.53
2022-12-03T02:54:20.264Z,19.70
2022-12-03T02:56:53.213Z,18.70
2022-12-03T02:59:23.486Z,19.23
2022-12-03T03:01:53.891Z,19.20
2022-12-03T03:04:24.943Z,18.57
2022-12-03T03:06:55.500Z,19.23
2022-12-03T03:09:26.022Z,20.20
2022-12-03T03:11:58.871Z,18.70
2022-12-03T03:14:29.226Z,19.07
2022-12-03T03:16:59.494Z,19.50
2022-12-03T03:19:29.908Z,18.83
2022-12-03T03:22:00.212Z,20.17
2022-12-03T03:24:30.514Z,18.43
2022-12-03T03:27:04.483Z,18.57
2022-12-03T03:29:35.323Z,19.35
2022-12-03T03:32:06.541Z,18.77
2022-12-03T03:34:37.018Z,17.53
2022-12-03T03:37:07.299Z,17.90
2022-12-03T03:39:37.602Z,16.83
2022-12-03T03:42:10.452Z,18.47
2022-12-03T03:44:41.034Z,20.87
2022-12-03T03:47:11.350Z,19.23
2022-12-03T03:49:41.666Z,17.90
2022-12-03T03:52:12.406Z,19.37
2022-12-03T03:54:42.925Z,19.73
2022-12-03T03:57:15.991Z,16.17
2022-12-03T03:59:46.396Z,17.80
2022-12-03T04:02:21.329Z,17.93
2022-12-03T04:04:52.438Z,16.97
2022-12-03T04:07:23.068Z,17.63
2022-12-03T04:09:53.357Z,17.77
2022-12-03T04:12:38.590Z,18.47
2022-12-03T04:15:09.596Z,18.77
2022-12-03T04:17:40.434Z,18.63
2022-12-03T04:20:12.727Z,17.10
2022-12-03T04:22:40.396Z,18.97
2022-12-03T04:25:24.739Z,19.17
2022-12-03T04:28:11.532Z,17.37
2022-12-03T04:30:41.821Z,18.57
2022-12-03T04:33:33.342Z,17.23
2022-12-03T04:36:03.562Z,17.33
2022-12-03T04:38:33.848Z,17.00
2022-12-03T04:41:04.391Z,16.87
2022-12-03T04:43:57.998Z,18.67
2022-12-03T04:46:28.515Z,16.33
2022-12-03T04:48:58.819Z,16.60
2022-12-03T04:51:29.114Z,16.10
2022-12-03T04:54:00.084Z,17.57
2022-12-03T04:56:30.410Z,16.37
2022-12-03T04:59:03.072Z,16.80
2022-12-03T05:01:33.394Z,18.17
2022-12-03T05:04:03.743Z,18.53
2022-12-03T05:06:33.994Z,17.60
2022-12-03T05:09:04.286Z,18.07
2022-12-03T05:11:34.867Z,16.73
2022-12-03T05:14:07.692Z,18.37
2022-12-03T05:16:38.379Z,17.23
2022-12-03T05:19:09.999Z,19.83
2022-12-03T05:21:37.649Z,17.37
2022-12-03T05:24:08.738Z,16.63
2022-12-03T05:26:39.013Z,19.03
2022-12-03T05:29:11.615Z,16.10
2022-12-03T05:31:41.583Z,15.87
2022-12-03T05:34:11.863Z,16.90
2022-12-03T05:36:41.958Z,16.73
2022-12-03T05:39:12.726Z,17.93
2022-12-03T05:41:55.425Z,17.60
2022-12-03T05:44:28.011Z,16.17
2022-12-03T05:46:58.022Z,17.53
2022-12-03T05:49:28.289Z,16.13
2022-12-03T05:51:59.010Z,17.03
2022-12-03T05:54:29.327Z,17.67
2022-12-03T05:56:59.561Z,16.63
2022-12-03T05:59:32.144Z,17.27
2022-12-03T06:02:02.717Z,17.30
2022-12-03T06:04:33.039Z,17.50
2022-12-03T06:07:03.303Z,16.30
2022-12-03T06:09:33.555Z,15.70
2022-12-03T06:12:04.950Z,17.50
2022-12-03T06:14:37.644Z,18.17
2022-12-03T06:17:22.982Z,16.30
2022-12-03T06:19:53.205Z,17.53
2022-12-03T06:22:23.326Z,16.20
2022-12-03T06:24:53.931Z,15.40
2022-12-03T06:27:24.478Z,16.90
2022-12-03T06:29:57.032Z,19.43
2022-12-03T06:32:27.309Z,17.93
2022-12-03T06:34:57.597Z,15.80
2022-12-03T06:37:27.848Z,16.53
2022-12-03T06:39:58.231Z,17.43
2022-12-03T06:42:28.525Z,17.23
2022-12-03T06:45:01.150Z,17.60
2022-12-03T06:47:33.571Z,15.63
2022-12-03T06:50:03.851Z,16.33
2022-12-03T06:52:34.115Z,16.00
2022-12-03T06:55:04.503Z,17.03
2022-12-03T06:57:34.755Z,17.90
2022-12-03T07:00:08.962Z,16.40
2022-12-03T07:02:39.495Z,16.42
2022-12-03T07:05:10.102Z,17.13
2022-12-03T07:07:40.480Z,17.20
2022-12-03T07:10:11.759Z,16.87
2022-12-03T07:12:42.017Z,18.40
2022-12-03T07:15:14.899Z,15.77
2022-12-03T07:17:45.151Z,15.43
2022-12-03T07:20:16.379Z,17.10
2022-12-03T07:22:46.650Z,14.37
2022-12-03T07:25:22.867Z,16.63
2022-12-03T07:27:53.800Z,15.03
2022-12-03T07:30:27.777Z,18.13
2022-12-03T07:32:59.511Z,16.50
2022-12-03T07:35:30.665Z,16.07
2022-12-03T07:38:00.968Z,16.07
2022-12-03T07:40:31.046Z,14.83
2022-12-03T07:43:01.273Z,17.57
2022-12-03T07:45:33.883Z,16.40
2022-12-03T07:48:04.161Z,15.87
2022-12-03T07:50:34.448Z,17.10
2022-12-03T07:53:04.751Z,15.53
2022-12-03T07:55:35.051Z,16.43
2022-12-03T07:58:05.761Z,17.67
2022-12-03T08:00:38.445Z,15.53
2022-12-03T08:03:08.933Z,17.47
2022-12-03T08:05:39.206Z,16.53
2022-12-03T08:08:09.589Z,18.43
2022-12-03T08:10:39.901Z,18.33
2022-12-03T08:13:15.624Z,18.60
2022-12-03T08:15:49.010Z,15.07
2022-12-03T08:18:20.856Z,16.83
2022-12-03T08:20:54.495Z,18.07
2022-12-03T08:23:26.843Z,18.63
2022-12-03T08:26:02.082Z,16.13
2022-12-03T08:28:32.373Z,15.83
2022-12-03T08:31:12.276Z,16.03
2022-12-03T08:33:43.571Z,17.03
2022-12-03T08:36:17.367Z,18.40
2022-12-03T08:38:52.688Z,19.40
2022-12-03T08:41:44.004Z,18.60
2022-12-03T08:44:23.844Z,17.30
2022-12-03T08:47:05.991Z,17.23
2022-12-03T08:49:36.117Z,16.77
2022-12-03T08:52:15.804Z,17.63
2022-12-03T08:54:46.278Z,18.30
2022-12-03T08:57:29.469Z,17.10
2022-12-03T09:00:03.699Z,19.20
2022-12-03T09:02:37.698Z,18.73
2022-12-03T09:05:18.510Z,16.30
2022-12-03T09:07:48.955Z,16.63
2022-12-03T09:10:19.353Z,17.10
2022-12-03T09:12:49.663Z,17.87
2022-12-03T09:15:20.142Z,17.50
2022-12-03T09:17:55.855Z,17.60
2022-12-03T09:20:26.135Z,20.20
2022-12-03T09:22:56.454Z,19.83
2022-12-03T09:25:26.746Z,17.80
2022-12-03T09:27:56.826Z,16.10
2022-12-03T09:30:27.153Z,17.40
2022-12-03T09:33:00.288Z,16.60
2022-12-03T09:35:30.605Z,15.90
2022-12-03T09:38:00.879Z,18.60
2022-12-03T09:40:31.879Z,17.83
2022-12-03T09:43:02.216Z,27.57
2022-12-03T09:45:32.569Z,23.80
2022-12-03T09:48:06.458Z,21.27
2022-12-03T09:50:36.756Z,19.58
2022-12-03T09:53:07.079Z,20.63
2022-12-03T09:55:37.582Z,18.67
2022-12-03T09:58:14.219Z,17.23
2022-12-03T10:00:45.680Z,20.10
2022-12-03T10:03:25.219Z,18.90
2022-12-03T10:05:58.849Z,18.40
2022-12-03T10:08:32.515Z,18.43
2022-12-03T10:11:03.017Z,19.92
2022-12-03T10:13:34.906Z,19.40
2022-12-03T10:16:05.223Z,16.67
2022-12-03T10:18:41.741Z,17.03
2022-12-03T10:21:19.558Z,18.23
2022-12-03T10:23:55.142Z,17.50
2022-12-03T10:26:41.507Z,16.87
2022-12-03T10:29:15.441Z,15.53
2022-12-03T10:31:45.434Z,15.23
2022-12-03T10:34:27.362Z,15.37
2022-12-03T10:37:19.164Z,17.17
2022-12-03T10:40:05.349Z,16.93
2022-12-03T10:42:37.551Z,18.43
2022-12-03T10:45:25.936Z,14.63
2022-12-03T10:48:07.577Z,16.03
2022-12-03T10:50:40.761Z,16.23
2022-12-03T10:53:13.346Z,13.70
2022-12-03T10:55:45.986Z,13.90
2022-12-03T10:58:24.667Z,13.47
2022-12-03T11:00:56.569Z,12.53
2022-12-03T11:03:28.607Z,13.77
2022-12-03T11:06:04.535Z,14.00
2022-12-03T11:08:38.046Z,14.63
2022-12-03T11:11:10.306Z,14.33
2022-12-03T11:13:55.334Z,12.23
2022-12-03T11:17:10.547Z,12.43
2022-12-03T11:19:52.150Z,11.25
2022-12-03T11:22:42.713Z,12.53
2022-12-03T11:25:42.746Z,11.50
2022-12-03T11:28:34.503Z,10.07
2022-12-03T11:31:09.897Z,9.93
2022-12-03T11:33:43.986Z,10.27
2022-12-03T11:36:31.786Z,10.05
2022-12-03T11:39:12.792Z,9.33
2022-12-03T11:41:45.130Z,11.15
2022-12-03T11:44:31.937Z,10.13
2022-12-03T11:47:10.130Z,10.00
2022-12-03T11:49:49.626Z,9.70
2022-12-03T11:52:28.901Z,8.83
2022-12-03T11:55:05.424Z,10.80
2022-12-03T11:57:39.159Z,10.20
2022-12-03T12:00:20.695Z,9.65
2022-12-03T12:02:51.931Z,9.48
2022-12-03T12:05:29.085Z,9.73
2022-12-03T12:07:59.913Z,9.27
2022-12-03T12:10:47.667Z,9.03
2022-12-03T12:13:54.604Z,9.63
2022-12-03T12:16:58.515Z,8.90
2022-12-03T12:19:41.302Z,8.20
2022-12-03T12:22:31.125Z,8.57
2022-12-03T12:25:03.092Z,7.67
2022-12-03T12:27:39.299Z,9.57
2022-12-03T12:30:12.926Z,9.63
2022-12-03T12:32:48.184Z,8.30
2022-12-03T12:35:21.129Z,7.93
2022-12-03T12:37:59.550Z,8.07
2022-12-03T12:40:32.018Z,8.83
2022-12-03T12:43:12.608Z,8.37
2022-12-03T12:45:46.033Z,8.60
2022-12-03T12:48:22.970Z,8.87
2022-12-03T12:50:55.794Z,9.30
2022-12-03T12:53:29.302Z,8.90
2022-12-03T12:56:01.284Z,7.60
2022-12-03T12:58:35.953Z,9.13
2022-12-03T13:01:10.286Z,8.37
2022-12-03T13:06:17.402Z,8.63
2022-12-03T13:08:49.941Z,8.53
2022-12-03T13:11:37.010Z,7.93
2022-12-03T13:14:17.694Z,8.17
2022-12-03T13:16:49.825Z,8.23
2022-12-03T13:19:25.732Z,9.07
2022-12-03T13:21:57.605Z,7.68
2022-12-03T13:24:36.151Z,8.00
2022-12-03T13:27:21.379Z,9.17
2022-12-03T13:29:57.410Z,8.50
2022-12-03T13:32:32.011Z,8.77
2022-12-03T13:37:36.231Z,8.07
2022-12-03T13:40:22.151Z,8.27
2022-12-03T13:42:53.209Z,7.75
2022-12-03T13:45:34.129Z,8.70
2022-12-03T13:48:06.314Z,10.07
2022-12-03T13:50:39.497Z,9.03
2022-12-03T13:53:22.512Z,8.32
2022-12-03T13:55:54.610Z,8.17
2022-12-03T13:58:24.886Z,8.77
2022-12-03T14:00:57.629Z,9.73
2022-12-03T14:03:27.926Z,7.03
2022-12-03T14:05:58.158Z,9.90
2022-12-03T14:08:28.484Z,8.63
2022-12-03T14:11:00.744Z,8.63
2022-12-03T14:13:32.168Z,10.33
2022-12-03T14:16:04.943Z,8.03
2022-12-03T14:18:35.294Z,10.50
2022-12-03T14:21:05.745Z,16.97
2022-12-03T14:23:36.041Z,9.10
2022-12-03T14:26:06.532Z,8.87
2022-12-03T14:28:36.829Z,9.77
2022-12-03T14:31:09.756Z,9.13
2022-12-03T14:33:40.110Z,9.33
2022-12-03T14:36:16.468Z,7.80
2022-12-03T14:38:46.764Z,8.30
2022-12-03T14:41:29.588Z,8.67
2022-12-03T14:43:59.945Z,8.07
2022-12-03T14:46:32.734Z,7.40
2022-12-03T14:49:05.438Z,8.67
2022-12-03T14:51:35.725Z,8.33
2022-12-03T14:54:06.142Z,8.80
2022-12-03T14:56:36.631Z,8.53
2022-12-03T14:59:06.924Z,9.13
2022-12-03T15:01:39.926Z,8.70
2022-12-03T15:04:10.351Z,9.50
2022-12-03T15:06:40.759Z,7.37
2022-12-03T15:09:11.303Z,7.97
2022-12-03T15:11:46.112Z,7.70
2022-12-03T15:14:17.314Z,9.43
2022-12-03T15:16:50.109Z,8.10
2022-12-03T15:19:23.494Z,9.67
2022-12-03T15:21:53.815Z,10.07
2022-12-03T15:24:24.136Z,8.80
2022-12-03T15:26:56.005Z,9.93
2022-12-03T15:29:26.504Z,8.67
2022-12-03T15:31:59.497Z,8.57
2022-12-03T15:34:29.844Z,8.17
2022-12-03T15:37:00.722Z,7.77
2022-12-03T15:39:30.981Z,8.40
2022-12-03T15:42:01.324Z,12.37
2022-12-03T15:44:31.603Z,9.83
2022-12-03T15:47:04.267Z,11.43
2022-12-03T15:49:34.710Z,12.17
2022-12-03T15:52:05.992Z,10.93
2022-12-03T15:54:37.146Z,9.80
2022-12-03T15:57:07.658Z,9.63
2022-12-03T15:59:37.968Z,8.90
2022-12-03T16:02:10.895Z,8.13
2022-12-03T16:04:42.310Z,7.77
2022-12-03T16:07:12.615Z,9.77
2022-12-03T16:09:43.460Z,8.57
2022-12-03T16:12:13.856Z,8.83
2022-12-03T16:14:49.676Z,7.00
2022-12-03T16:17:23.143Z,9.57
2022-12-03T16:19:53.765Z,10.43
2022-12-03T16:22:24.234Z,10.77
2022-12-03T16:24:54.596Z,10.43
2022-12-03T16:27:25.990Z,10.20
2022-12-03T16:29:57.192Z,8.93
2022-12-03T16:32:30.538Z,9.63
2022-12-03T16:35:00.970Z,9.53
2022-12-03T16:37:31.364Z,10.13
2022-12-03T16:40:01.941Z,9.60
2022-12-03T16:42:32.680Z,9.53
2022-12-03T16:45:33.944Z,9.63
2022-12-03T16:48:07.532Z,10.40
2022-12-03T16:50:38.803Z,9.68
2022-12-03T16:53:08.881Z,9.83
2022-12-03T16:55:39.403Z,9.23
2022-12-03T16:58:09.774Z,9.03
2022-12-03T17:00:40.392Z,9.67
2022-12-03T17:03:13.138Z,9.20
2022-12-03T17:05:43.387Z,9.40
2022-12-03T17:08:13.759Z,10.47
2022-12-03T17:10:44.266Z,9.97
2022-12-03T17:13:14.442Z,9.60
2022-12-03T17:15:45.176Z,8.70
2022-12-03T17:18:18.130Z,9.47
2022-12-03T17:20:48.486Z,10.97
2022-12-03T17:23:18.567Z,11.57
2022-12-03T17:25:48.945Z,19.00
2022-12-03T17:28:19.399Z,8.70
2022-12-03T17:30:49.483Z,11.97
2022-12-03T17:33:22.353Z,16.13
2022-12-03T17:35:52.672Z,10.50
2022-12-03T17:38:22.987Z,10.20
2022-12-03T17:40:53.066Z,10.97
2022-12-03T17:43:23.106Z,10.80
2022-12-03T17:45:53.426Z,9.73
2022-12-03T17:48:26.077Z,11.13
2022-12-03T17:50:58.098Z,10.97
2022-12-03T17:53:28.463Z,11.50
2022-12-03T17:55:58.773Z,10.30
2022-12-03T17:58:29.448Z,9.07
2022-12-03T18:01:02.772Z,10.00
2022-12-03T18:03:35.931Z,7.88
2022-12-03T18:06:06.598Z,9.10
2022-12-03T18:08:36.918Z,10.17
2022-12-03T18:11:07.231Z,9.37
2022-12-03T18:13:37.560Z,9.90
2022-12-03T18:16:08.310Z,10.73
2022-12-03T18:18:41.316Z,9.50
2022-12-03T18:21:11.647Z,9.53
2022-12-03T18:23:42.175Z,11.50
2022-12-03T18:26:12.261Z,10.07
2022-12-03T18:28:42.713Z,10.20
2022-12-03T18:31:16.901Z,9.97
2022-12-03T18:33:49.877Z,11.68
2022-12-03T18:36:21.912Z,10.83
2022-12-03T18:38:55.216Z,10.03
2022-12-03T18:41:27.214Z,10.27
2022-12-03T18:43:57.590Z,11.27
2022-12-03T18:49:20.603Z,9.60
2022-12-03T18:51:56.001Z,10.03
2022-12-03T18:54:29.112Z,11.37
2022-12-03T18:56:59.454Z,10.50
2022-12-03T18:59:29.832Z,11.37
2022-12-03T19:02:00.282Z,10.23
2022-12-03T19:04:33.055Z,10.27
2022-12-03T19:07:03.851Z,11.87
2022-12-03T19:09:34.324Z,10.73
2022-12-03T19:12:05.871Z,10.63
2022-12-03T19:14:39.400Z,11.50
2022-12-03T19:17:09.770Z,10.30
2022-12-03T19:19:42.817Z,13.47
2022-12-03T19:22:12.892Z,12.10
2022-12-03T19:24:43.770Z,20.53
2022-12-03T19:27:14.154Z,20.50
2022-12-03T19:29:44.539Z,11.17
2022-12-03T19:32:14.963Z,11.00
2022-12-03T19:34:47.558Z,11.83
2022-12-03T19:37:17.866Z,10.73
2022-12-03T19:39:47.960Z,9.77
2022-12-03T19:42:18.295Z,10.57
2022-12-03T19:44:48.471Z,11.67
2022-12-03T19:47:18.514Z,10.20
2022-12-03T19:49:52.055Z,9.30
2022-12-03T19:52:22.613Z,10.63
2022-12-03T19:54:52.701Z,11.37
2022-12-03T19:57:23.634Z,11.27
2022-12-03T19:59:54.390Z,11.47
2022-12-03T20:02:25.003Z,10.40
2022-12-03T20:04:58.084Z,10.67
2022-12-03T20:07:28.176Z,10.40
2022-12-03T20:09:58.626Z,9.83
2022-12-03T20:12:29.041Z,9.97
2022-12-03T20:14:59.638Z,11.03
2022-12-03T20:17:30.316Z,10.23
2022-12-03T20:20:03.341Z,9.17
2022-12-03T20:22:33.780Z,9.30
2022-12-03T20:25:04.407Z,9.33
2022-12-03T20:27:35.102Z,11.00
2022-12-03T20:30:05.394Z,9.67
2022-12-03T20:32:38.368Z,9.50
2022-12-03T20:35:15.003Z,9.40
2022-12-03T20:37:45.379Z,9.13
2022-12-03T20:40:16.016Z,9.40
2022-12-03T20:42:49.892Z,9.30
2022-12-03T20:45:20.161Z,10.25
2022-12-03T20:47:50.464Z,8.77
2022-12-03T20:50:23.295Z,10.00
2022-12-03T20:53:22.648Z,10.47
2022-12-03T20:55:44.025Z,8.93
2022-12-03T20:58:14.361Z,9.47
2022-12-03T21:00:44.776Z,9.27
2022-12-03T21:03:15.127Z,8.70
2022-12-03T21:05:48.087Z,10.80
2022-12-03T21:08:33.052Z,9.97
2022-12-03T21:11:10.706Z,10.03
2022-12-03T21:13:43.721Z,9.70
2022-12-03T21:16:15.170Z,10.10
2022-12-03T21:18:45.738Z,11.03
2022-12-03T21:21:19.765Z,10.40
2022-12-03T21:23:50.384Z,10.65
2022-12-03T21:26:21.620Z,10.60
2022-12-03T21:28:53.460Z,9.20
2022-12-03T21:31:25.978Z,11.80
2022-12-03T21:33:56.996Z,10.20
2022-12-03T21:36:30.254Z,9.90
2022-12-03T21:39:00.320Z,10.37
2022-12-03T21:41:30.488Z,9.87
2022-12-03T21:44:00.913Z,9.70
2022-12-03T21:47:09.833Z,10.30
2022-12-03T21:49:22.772Z,11.17
2022-12-03T21:51:55.784Z,10.43
2022-12-03T21:54:26.121Z,8.70
2022-12-03T21:56:56.423Z,10.53
2022-12-03T21:59:26.730Z,11.87
2022-12-03T22:01:56.884Z,10.97
2022-12-03T22:04:27.034Z,9.50
2022-12-03T22:07:00.410Z,9.20
2022-12-03T22:09:30.500Z,9.57
2022-12-03T22:12:01.362Z,8.83
2022-12-03T22:14:31.746Z,8.67
2022-12-03T22:17:02.080Z,7.77
2022-12-03T22:19:32.569Z,9.00
2022-12-03T22:22:05.206Z,8.60
2022-12-03T22:24:35.286Z,7.97
2022-12-03T22:27:05.570Z,9.63
2022-12-03T22:29:36.279Z,9.30
2022-12-03T22:32:06.554Z,8.00
2022-12-03T22:34:37.940Z,9.67
2022-12-03T22:37:10.796Z,8.93
2022-12-03T22:39:41.079Z,9.13
2022-12-03T22:42:11.340Z,10.50
2022-12-03T22:44:41.595Z,9.40
2022-12-03T22:47:11.899Z,10.27
2022-12-03T22:49:42.210Z,9.63
2022-12-03T22:52:14.776Z,9.90
2022-12-03T22:54:47.994Z,8.60
2022-12-03T22:57:18.272Z,10.80
2022-12-03T22:59:48.527Z,8.30
2022-12-03T23:02:18.835Z,9.97
2022-12-03T23:04:49.149Z,8.90
2022-12-03T23:07:21.747Z,10.27
2022-12-03T23:09:52.353Z,10.93
2022-12-03T23:12:22.739Z,8.87
2022-12-03T23:14:55.727Z,10.53
2022-12-03T23:17:26.041Z,9.60
2022-12-03T23:19:56.541Z,8.60
2022-12-03T23:22:29.463Z,9.30
2022-12-03T23:24:59.677Z,10.17
2022-12-03T23:27:30.807Z,9.53
2022-12-03T23:30:01.088Z,8.47
2022-12-03T23:32:31.405Z,9.17
2022-12-03T23:35:01.776Z,9.43
2022-12-03T23:37:34.571Z,10.03
2022-12-03T23:40:04.830Z,10.27
2022-12-03T23:42:35.119Z,9.93
2022-12-03T23:45:05.458Z,9.77
2022-12-03T23:47:35.788Z,9.40
2022-12-03T23:50:06.037Z,9.23
2022-12-03T23:52:39.243Z,9.50
2022-12-03T23:55:10.523Z,9.50
2022-12-03T23:57:40.788Z,8.60
